CRK452 VHHH-ZUTF
Flight info
| Callsign | CRK452 |
|---|---|
| Flight time | N/A |
| Altitude | 36100 |
| Route | K0863S1100 BEKOL5A BEKOL A461 SHL W22 TEPID W24 OSNOV G586 QP B330 ELKAL W179 RIRKI W232 ELDUD ELDUD8M |
| Aircraft | A320/M-SDE3FGHIRWY/LB1 |
Departure
| Time | 2026-05-07 12:56 |
|---|---|
| Airport | Hong Kong International Airport (VHHH) |
Arrival
| Time | N/A |
|---|---|
| Airport | Chengdu Tianfu International Airport (ZUTF) |
| Time | Latitude | Longitude | Altitude | Speed | Heading |
|---|---|---|---|---|---|
| 2026-05-07 12:21 | 22.30821 | 113.91915 | 35 ft | 0 kts | 251° |
| 2026-05-07 12:44 | 22.30823 | 113.91921 | 36 ft | 2 kts | 251° |
| 2026-05-07 12:44 | 22.30828 | 113.91936 | 36 ft | 2 kts | 251° |
| 2026-05-07 12:44 | 22.30832 | 113.91952 | 36 ft | 2 kts | 251° |
| 2026-05-07 12:45 | 22.30837 | 113.91967 | 36 ft | 2 kts | 251° |
| 2026-05-07 12:45 | 22.30841 | 113.91977 | 36 ft | 1 kts | 251° |
| 2026-05-07 12:45 | 22.30848 | 113.91991 | 36 ft | 2 kts | 225° |
| 2026-05-07 12:45 | 22.30859 | 113.92001 | 36 ft | 2 kts | 205° |
| 2026-05-07 12:46 | 22.30874 | 113.92006 | 36 ft | 2 kts | 184° |
| 2026-05-07 12:46 | 22.30888 | 113.92004 | 36 ft | 0 kts | 163° |
| 2026-05-07 12:46 | 22.30894 | 113.92002 | 36 ft | 1 kts | 159° |
| 2026-05-07 12:46 | 22.30895 | 113.92001 | 36 ft | 0 kts | 160° |
| 2026-05-07 12:50 | 22.30880 | 113.92007 | 36 ft | 6 kts | 161° |
| 2026-05-07 12:50 | 22.30811 | 113.92033 | 35 ft | 12 kts | 156° |
| 2026-05-07 12:50 | 22.30778 | 113.92115 | 35 ft | 13 kts | 106° |
| 2026-05-07 12:50 | 22.30699 | 113.92161 | 36 ft | 13 kts | 177° |
| 2026-05-07 12:51 | 22.30639 | 113.92088 | 35 ft | 15 kts | 251° |
| 2026-05-07 12:51 | 22.30600 | 113.91969 | 36 ft | 18 kts | 251° |
| 2026-05-07 12:51 | 22.30557 | 113.91833 | 35 ft | 20 kts | 251° |
| 2026-05-07 12:51 | 22.30508 | 113.91684 | 35 ft | 21 kts | 251° |
| 2026-05-07 12:52 | 22.30457 | 113.91526 | 35 ft | 23 kts | 251° |
| 2026-05-07 12:52 | 22.30404 | 113.91361 | 35 ft | 23 kts | 251° |
| 2026-05-07 12:52 | 22.30348 | 113.91190 | 35 ft | 23 kts | 251° |
| 2026-05-07 12:52 | 22.30296 | 113.91025 | 35 ft | 23 kts | 251° |
| 2026-05-07 12:53 | 22.30243 | 113.90862 | 35 ft | 22 kts | 250° |
| 2026-05-07 12:53 | 22.30192 | 113.90702 | 35 ft | 22 kts | 251° |
| 2026-05-07 12:53 | 22.30140 | 113.90542 | 35 ft | 22 kts | 251° |
| 2026-05-07 12:53 | 22.30088 | 113.90379 | 35 ft | 22 kts | 251° |
| 2026-05-07 12:54 | 22.30037 | 113.90221 | 35 ft | 22 kts | 251° |
| 2026-05-07 12:54 | 22.29985 | 113.90062 | 35 ft | 22 kts | 251° |
| 2026-05-07 12:54 | 22.29934 | 113.89902 | 35 ft | 22 kts | 251° |
| 2026-05-07 12:54 | 22.29885 | 113.89758 | 35 ft | 15 kts | 240° |
| 2026-05-07 12:55 | 22.29788 | 113.89748 | 35 ft | 15 kts | 161° |
| 2026-05-07 12:55 | 22.29686 | 113.89791 | 35 ft | 15 kts | 145° |
| 2026-05-07 12:55 | 22.29649 | 113.89896 | 35 ft | 16 kts | 73° |
| 2026-05-07 12:55 | 22.29690 | 113.90022 | 35 ft | 26 kts | 70° |
| 2026-05-07 12:56 | 22.29836 | 113.90472 | 36 ft | 99 kts | 71° |
| 2026-05-07 12:56 | 22.30135 | 113.91402 | 37 ft | 158 kts | 70° |
| 2026-05-07 12:56 | 22.30520 | 113.92631 | 304 ft | 183 kts | 74° |
| 2026-05-07 12:56 | 22.30888 | 113.93970 | 931 ft | 190 kts | 76° |
| 2026-05-07 12:57 | 22.31278 | 113.95350 | 1670 ft | 194 kts | 73° |
| 2026-05-07 12:57 | 22.31750 | 113.96705 | 2318 ft | 196 kts | 71° |
| 2026-05-07 12:57 | 22.32249 | 113.98135 | 2673 ft | 212 kts | 71° |
| 2026-05-07 12:57 | 22.32771 | 113.99679 | 3155 ft | 221 kts | 71° |
| 2026-05-07 12:58 | 22.33290 | 114.01253 | 3755 ft | 224 kts | 72° |
| 2026-05-07 12:58 | 22.33768 | 114.02840 | 4359 ft | 227 kts | 79° |
| 2026-05-07 12:58 | 22.33790 | 114.04539 | 4966 ft | 229 kts | 101° |
| 2026-05-07 12:58 | 22.33230 | 114.06158 | 5559 ft | 232 kts | 121° |
| 2026-05-07 12:59 | 22.32180 | 114.07458 | 6124 ft | 236 kts | 141° |
| 2026-05-07 12:59 | 22.30747 | 114.08381 | 6525 ft | 250 kts | 160° |
| 2026-05-07 12:59 | 22.28994 | 114.08785 | 7014 ft | 262 kts | 179° |
| 2026-05-07 12:59 | 22.27161 | 114.08785 | 7608 ft | 270 kts | 182° |
| 2026-05-07 13:00 | 22.25219 | 114.08739 | 8005 ft | 287 kts | 182° |
| 2026-05-07 13:00 | 22.23175 | 114.08698 | 8717 ft | 292 kts | 182° |
| 2026-05-07 13:00 | 22.21143 | 114.08672 | 9472 ft | 294 kts | 181° |
| 2026-05-07 13:00 | 22.19112 | 114.08965 | 10140 ft | 300 kts | 161° |
| 2026-05-07 13:01 | 22.17291 | 114.10141 | 10577 ft | 315 kts | 137° |
| 2026-05-07 13:01 | 22.16011 | 114.12133 | 10870 ft | 334 kts | 111° |
| 2026-05-07 13:01 | 22.15564 | 114.14681 | 11164 ft | 350 kts | 93° |
| 2026-05-07 13:01 | 22.15457 | 114.17350 | 11590 ft | 361 kts | 92° |
| 2026-05-07 13:02 | 22.15337 | 114.20083 | 12186 ft | 365 kts | 92° |
| 2026-05-07 13:02 | 22.15208 | 114.22814 | 12764 ft | 369 kts | 91° |
| 2026-05-07 13:02 | 22.15295 | 114.25581 | 13320 ft | 372 kts | 84° |
| 2026-05-07 13:02 | 22.15702 | 114.28374 | 13872 ft | 375 kts | 77° |
| 2026-05-07 13:03 | 22.16282 | 114.31127 | 14403 ft | 378 kts | 76° |
| 2026-05-07 13:03 | 22.16897 | 114.33893 | 14926 ft | 382 kts | 76° |
| 2026-05-07 13:03 | 22.17534 | 114.36704 | 15417 ft | 385 kts | 73° |
| 2026-05-07 13:03 | 22.18716 | 114.39336 | 15862 ft | 386 kts | 50° |